Open Full Screen Window  High Contrast Mode
Wind Gusting 18 knots
13
March 29, 2015 8:38 AM CDT
Weather Information
Wind Direction
  180 °
Wind Speed
  13 kt (15 mph)
Wind Gust
  18 kt (21 mph)
Altimeter
30.29 in
Visibility
10 SM
Temperature
-01° C
30° F
Dewpoint
-06° C
21° F
Humidity
69%
Sky Condition
Clear
VFR

METAR KAXV 291338Z AUTO 18013G18KT 10SM CLR M01/M06 A3029 RMK AO2

*Background is not an actual portrayal of the airport.